Time;durP1;ratioP1;P1;durP2;ratioP2;P2;SDS_P1;SDS_P2;PMS_P1;PMS_P2;Temp;Humidity;BMP_temperature;BMP_pressure;BME280_temperature;BME280_humidity;BME280_pressure;Samples;Min_cycle;Max_cycle;Signal;HPM_P1;HPM_P2
2021/10/31 00:02:12;;;;;;;23.33;15.70;;;;;;;;;;5007194;28;20212;-75
2021/10/31 00:04:37;;;;;;;28.23;14.57;;;;;;;;;;5012893;28;21507;-76
2021/10/31 00:07:03;;;;;;;28.07;15.60;;;;;;;;;;5012221;28;20186;-75
2021/10/31 00:09:29;;;;;;;25.47;15.90;;;;;;;;;;5014051;28;20193;-75
2021/10/31 00:11:54;;;;;;;24.60;16.40;;;;;;;;;;5017363;28;20234;-75
2021/10/31 00:14:19;;;;;;;29.87;17.10;;;;;;;;;;5007408;28;20357;-75
2021/10/31 00:16:44;;;;;;;26.53;15.67;;;;;;;;;;5008900;28;20179;-75
2021/10/31 00:19:11;;;;;;;25.80;15.77;;;;;;;;;;5017384;28;20248;-74
2021/10/31 00:21:36;;;;;;;28.43;16.93;;;;;;;;;;5010714;28;20402;-76
2021/10/31 00:24:01;;;;;;;27.97;16.40;;;;;;;;;;5012551;28;20206;-76
2021/10/31 00:26:26;;;;;;;24.70;16.03;;;;;;;;;;5017150;28;20205;-75
2021/10/31 00:28:52;;;;;;;28.10;16.20;;;;;;;;;;5010557;28;20269;-75
2021/10/31 00:31:17;;;;;;;21.73;15.10;;;;;;;;;;5010503;28;20691;-75
2021/10/31 00:33:42;;;;;;;33.10;17.67;;;;;;;;;;5011620;28;20190;-75
2021/10/31 00:36:07;;;;;;;31.90;18.17;;;;;;;;;;5012204;28;20191;-75
2021/10/31 00:38:32;;;;;;;24.63;18.17;;;;;;;;;;5012294;28;20191;-76
2021/10/31 00:40:58;;;;;;;28.67;16.90;;;;;;;;;;5011590;28;20300;-75
2021/10/31 00:43:23;;;;;;;28.43;17.60;;;;;;;;;;5010935;28;20923;-75
2021/10/31 00:45:49;;;;;;;32.10;18.30;;;;;;;;;;5011553;28;20178;-75
2021/10/31 00:48:14;;;;;;;30.43;20.83;;;;;;;;;;5011014;28;20189;-75
2021/10/31 00:50:40;;;;;;;38.90;20.90;;;;;;;;;;5010392;28;20412;-75
2021/10/31 00:53:06;;;;;;;33.90;20.27;;;;;;;;;;5011288;28;20181;-75
2021/10/31 00:55:31;;;;;;;30.37;20.33;;;;;;;;;;5011559;28;20182;-75
2021/10/31 00:57:57;;;;;;;33.97;22.03;;;;;;;;;;5016070;28;20548;-75
2021/10/31 01:00:22;;;;;;;32.90;21.97;;;;;;;;;;5008576;28;20229;-75
2021/10/31 01:02:48;;;;;;;38.93;23.83;;;;;;;;;;5018152;28;20628;-75
2021/10/31 01:05:15;;;;;;;30.87;23.27;;;;;;;;;;5009882;28;20411;-75
2021/10/31 01:07:57;;;;;;;40.73;24.60;;;;;;;;;;5025218;28;20178;-75
2021/10/31 01:10:43;;;;;;;29.30;22.10;;;;;;;;;;5011173;28;20269;-76
2021/10/31 01:13:19;;;;;;;38.97;24.43;;;;;;;;;;5011989;28;20226;-76
2021/10/31 01:15:55;;;;;;;34.40;25.17;;;;;;;;;;5025698;28;20178;-75
2021/10/31 01:18:26;;;;;;;40.50;25.93;;;;;;;;;;5014712;28;20251;-76
2021/10/31 01:21:10;;;;;;;44.53;25.27;;;;;;;;;;5012621;28;20594;-76
2021/10/31 01:23:46;;;;;;;40.77;25.57;;;;;;;;;;5009591;28;20198;-76
2021/10/31 01:26:14;;;;;;;36.10;24.43;;;;;;;;;;5011436;28;20182;-75
2021/10/31 01:28:40;;;;;;;38.93;25.53;;;;;;;;;;5011199;28;20182;-75
2021/10/31 01:31:05;;;;;;;37.10;25.07;;;;;;;;;;5011717;28;20194;-76
2021/10/31 01:33:33;;;;;;;42.70;24.40;;;;;;;;;;5010715;28;20232;-76
2021/10/31 01:36:16;;;;;;;37.00;23.90;;;;;;;;;;5011364;28;20510;-76
2021/10/31 01:38:49;;;;;;;39.73;23.40;;;;;;;;;;5015537;28;20208;-74
2021/10/31 01:41:33;;;;;;;35.33;23.17;;;;;;;;;;5012010;28;20258;-74
2021/10/31 01:44:08;;;;;;;35.83;23.57;;;;;;;;;;5009888;28;20548;-74
2021/10/31 01:47:02;;;;;;;34.60;23.97;;;;;;;;;;5011968;28;20239;-75
2021/10/31 01:49:36;;;;;;;38.40;23.07;;;;;;;;;;4997163;28;21430;-75
2021/10/31 01:52:03;;;;;;;36.30;23.33;;;;;;;;;;5025944;28;20269;-75
2021/10/31 01:54:31;;;;;;;36.73;23.60;;;;;;;;;;5010068;28;20198;-75
2021/10/31 01:56:59;;;;;;;35.40;22.90;;;;;;;;;;5013542;28;20182;-74
2021/10/31 01:59:27;;;;;;;49.03;23.63;;;;;;;;;;5009787;28;20194;-75
2021/10/31 02:01:52;;;;;;;35.70;21.53;;;;;;;;;;5013951;28;20218;-75
2021/10/31 02:04:19;;;;;;;33.60;21.43;;;;;;;;;;5011593;28;20186;-75
2021/10/31 02:06:46;;;;;;;35.03;21.20;;;;;;;;;;5010101;28;20224;-75
2021/10/31 02:09:16;;;;;;;33.20;20.87;;;;;;;;;;5008317;28;20217;-75
2021/10/31 02:11:42;;;;;;;32.10;20.83;;;;;;;;;;5008530;28;20259;-75
2021/10/31 02:14:08;;;;;;;34.93;21.87;;;;;;;;;;5010374;28;20249;-75
2021/10/31 02:16:34;;;;;;;34.10;20.70;;;;;;;;;;5007123;28;20186;-75
2021/10/31 02:19:04;;;;;;;28.50;19.67;;;;;;;;;;5013807;28;20201;-76
2021/10/31 02:21:30;;;;;;;36.23;20.07;;;;;;;;;;5025825;22;20235;-75
2021/10/31 02:23:58;;;;;;;31.80;19.20;;;;;;;;;;5015524;28;20249;-74
2021/10/31 02:26:23;;;;;;;32.83;19.33;;;;;;;;;;5018590;28;20186;-74
2021/10/31 02:28:58;;;;;;;28.00;19.87;;;;;;;;;;5015271;28;20836;-74
2021/10/31 02:31:25;;;;;;;27.97;18.53;;;;;;;;;;5016461;28;20598;-75
2021/10/31 02:33:51;;;;;;;30.50;18.43;;;;;;;;;;5010595;28;20190;-74
2021/10/31 02:36:16;;;;;;;34.13;19.40;;;;;;;;;;5012865;28;20187;-74
2021/10/31 02:38:41;;;;;;;31.33;17.80;;;;;;;;;;5010481;28;20605;-74
2021/10/31 02:41:08;;;;;;;30.53;17.77;;;;;;;;;;5010831;28;20190;-74
2021/10/31 02:43:33;;;;;;;31.17;17.87;;;;;;;;;;5009655;28;20320;-74
2021/10/31 02:45:58;;;;;;;30.47;17.63;;;;;;;;;;5013644;28;20649;-74
2021/10/31 02:48:23;;;;;;;26.60;16.63;;;;;;;;;;5011377;28;20233;-74
2021/10/31 02:50:49;;;;;;;25.47;16.07;;;;;;;;;;5014261;28;20631;-74
2021/10/31 02:53:36;;;;;;;23.43;16.13;;;;;;;;;;5009454;28;20563;-74
2021/10/31 02:56:18;;;;;;;28.57;16.23;;;;;;;;;;4997127;28;20632;-74
2021/10/31 02:58:55;;;;;;;26.90;15.10;;;;;;;;;;5014174;28;20273;-73
2021/10/31 03:01:21;;;;;;;25.47;15.73;;;;;;;;;;5012946;28;21884;-74
2021/10/31 03:03:46;;;;;;;28.90;16.53;;;;;;;;;;5010803;28;20351;-74
2021/10/31 03:06:12;;;;;;;28.10;16.17;;;;;;;;;;5007703;28;20174;-74
2021/10/31 03:08:38;;;;;;;34.30;15.70;;;;;;;;;;4992831;28;20597;-75
2021/10/31 03:11:04;;;;;;;25.53;16.57;;;;;;;;;;4992142;28;20644;-75
2021/10/31 03:13:30;;;;;;;25.70;16.10;;;;;;;;;;5010409;28;20268;-74
2021/10/31 03:15:55;;;;;;;24.97;15.70;;;;;;;;;;5010931;28;20179;-75
2021/10/31 03:18:20;;;;;;;28.27;15.73;;;;;;;;;;4998067;28;20260;-75
2021/10/31 03:20:46;;;;;;;20.53;14.17;;;;;;;;;;5009721;28;20189;-73
2021/10/31 03:23:11;;;;;;;28.63;16.57;;;;;;;;;;5007826;28;20450;-76
2021/10/31 03:25:36;;;;;;;25.93;14.60;;;;;;;;;;5009294;28;20178;-73
2021/10/31 03:28:02;;;;;;;24.43;16.00;;;;;;;;;;4995379;28;20198;-75
2021/10/31 03:30:27;;;;;;;22.23;15.20;;;;;;;;;;4993580;28;20235;-76
2021/10/31 03:32:52;;;;;;;26.17;16.13;;;;;;;;;;5010668;28;20204;-75
2021/10/31 03:35:18;;;;;;;24.23;15.40;;;;;;;;;;5012513;28;20182;-74
2021/10/31 03:37:43;;;;;;;28.23;15.33;;;;;;;;;;5009881;28;20458;-75
2021/10/31 03:40:09;;;;;;;26.20;15.73;;;;;;;;;;5013505;28;20197;-74
2021/10/31 03:42:34;;;;;;;27.17;15.73;;;;;;;;;;5010550;28;20246;-75
2021/10/31 03:44:59;;;;;;;27.87;16.97;;;;;;;;;;5010061;28;20654;-75
2021/10/31 03:47:27;;;;;;;25.33;15.70;;;;;;;;;;5009695;28;20524;-75
2021/10/31 03:49:52;;;;;;;29.50;17.03;;;;;;;;;;5011197;28;20186;-75
2021/10/31 03:52:17;;;;;;;28.33;16.97;;;;;;;;;;5009832;28;20202;-75
2021/10/31 03:54:42;;;;;;;24.83;14.93;;;;;;;;;;5009184;28;20386;-74
2021/10/31 03:57:08;;;;;;;30.60;18.57;;;;;;;;;;5012076;28;20222;-75
2021/10/31 03:59:33;;;;;;;24.60;15.40;;;;;;;;;;5012690;28;22132;-74
2021/10/31 04:01:59;;;;;;;28.23;16.50;;;;;;;;;;5013123;28;20222;-75
2021/10/31 04:04:24;;;;;;;26.67;16.93;;;;;;;;;;4990138;28;20174;-75
2021/10/31 04:06:49;;;;;;;24.93;16.30;;;;;;;;;;5015177;28;20181;-74
2021/10/31 04:09:14;;;;;;;26.17;15.83;;;;;;;;;;5035131;28;20182;-75
2021/10/31 04:11:39;;;;;;;24.10;15.23;;;;;;;;;;5032901;28;20206;-75
2021/10/31 04:14:05;;;;;;;25.03;14.80;;;;;;;;;;5034256;28;20186;-75
2021/10/31 04:16:30;;;;;;;27.27;16.00;;;;;;;;;;5032625;28;20250;-76
2021/10/31 04:18:55;;;;;;;28.63;16.70;;;;;;;;;;5039838;28;20170;-72
2021/10/31 04:21:21;;;;;;;26.07;16.87;;;;;;;;;;5019992;28;20236;-75
2021/10/31 04:23:46;;;;;;;27.30;17.33;;;;;;;;;;5036731;28;20201;-73
2021/10/31 04:26:11;;;;;;;29.27;17.10;;;;;;;;;;5022368;28;20198;-73
2021/10/31 04:28:36;;;;;;;26.47;16.63;;;;;;;;;;5012492;28;20267;-73
2021/10/31 04:31:01;;;;;;;26.63;15.93;;;;;;;;;;5012932;28;20755;-73
2021/10/31 04:33:27;;;;;;;29.73;17.30;;;;;;;;;;4993475;28;20285;-73
2021/10/31 04:35:52;;;;;;;27.47;15.67;;;;;;;;;;5012945;28;20264;-73
2021/10/31 04:38:20;;;;;;;28.83;16.03;;;;;;;;;;5011774;28;20229;-73
2021/10/31 04:40:46;;;;;;;27.40;16.03;;;;;;;;;;5014953;28;20928;-73
2021/10/31 04:43:11;;;;;;;27.30;17.17;;;;;;;;;;5013911;28;20221;-74
2021/10/31 04:45:41;;;;;;;26.90;16.03;;;;;;;;;;5014265;28;20182;-73
2021/10/31 04:48:07;;;;;;;28.80;15.37;;;;;;;;;;5012490;28;20175;-73
2021/10/31 04:50:33;;;;;;;25.80;14.73;;;;;;;;;;4992388;28;20268;-73
2021/10/31 04:52:58;;;;;;;29.20;14.77;;;;;;;;;;4994574;28;20621;-73
2021/10/31 04:55:23;;;;;;;29.87;14.10;;;;;;;;;;5010766;28;20201;-73
2021/10/31 04:57:48;;;;;;;27.37;15.23;;;;;;;;;;4997496;28;20291;-73
2021/10/31 05:00:14;;;;;;;27.93;14.87;;;;;;;;;;5020288;28;20293;-74
2021/10/31 05:02:39;;;;;;;28.67;15.03;;;;;;;;;;4993676;28;20700;-73
2021/10/31 05:05:04;;;;;;;23.90;15.13;;;;;;;;;;5010578;28;20167;-73
2021/10/31 05:07:30;;;;;;;28.23;15.00;;;;;;;;;;5009793;28;20189;-73
2021/10/31 05:09:55;;;;;;;29.83;15.37;;;;;;;;;;5011335;28;20228;-73
2021/10/31 05:12:22;;;;;;;25.40;14.13;;;;;;;;;;5010551;28;20261;-73
2021/10/31 05:14:47;;;;;;;22.90;14.50;;;;;;;;;;4992215;28;20178;-74
2021/10/31 05:17:12;;;;;;;21.10;13.60;;;;;;;;;;5010748;28;20182;-74
2021/10/31 05:19:37;;;;;;;28.40;14.33;;;;;;;;;;5010474;28;20197;-73
2021/10/31 05:22:03;;;;;;;23.73;14.17;;;;;;;;;;5011162;28;20217;-73
2021/10/31 05:24:28;;;;;;;28.93;14.40;;;;;;;;;;5012178;28;20769;-73
2021/10/31 05:26:53;;;;;;;24.30;13.13;;;;;;;;;;5013362;28;20189;-72
2021/10/31 05:29:18;;;;;;;27.23;13.40;;;;;;;;;;5009680;28;20257;-73
2021/10/31 05:31:43;;;;;;;28.20;15.60;;;;;;;;;;5016862;28;20221;-73
2021/10/31 05:34:10;;;;;;;27.07;14.97;;;;;;;;;;5010305;28;20188;-74
2021/10/31 05:36:36;;;;;;;23.33;13.97;;;;;;;;;;4995685;28;20544;-73
2021/10/31 05:39:01;;;;;;;27.90;14.27;;;;;;;;;;5012067;28;20182;-73
2021/10/31 05:41:26;;;;;;;23.27;14.87;;;;;;;;;;5012606;28;20873;-73
2021/10/31 05:43:51;;;;;;;26.13;14.50;;;;;;;;;;5010864;28;20248;-73
2021/10/31 05:46:17;;;;;;;26.87;14.40;;;;;;;;;;5011903;28;20182;-73
2021/10/31 05:48:42;;;;;;;20.27;13.63;;;;;;;;;;5010471;28;20174;-73
2021/10/31 05:51:07;;;;;;;27.87;14.63;;;;;;;;;;5016128;28;22015;-73
2021/10/31 05:53:32;;;;;;;27.20;14.90;;;;;;;;;;4996085;28;20746;-73
2021/10/31 05:55:57;;;;;;;32.13;17.23;;;;;;;;;;5015096;28;20676;-73
2021/10/31 05:58:23;;;;;;;24.83;15.13;;;;;;;;;;5012482;28;20186;-74
2021/10/31 06:00:48;;;;;;;32.73;17.33;;;;;;;;;;5012597;28;20277;-73
2021/10/31 06:03:13;;;;;;;32.73;16.47;;;;;;;;;;5011188;28;21414;-73
2021/10/31 06:05:39;;;;;;;36.97;18.23;;;;;;;;;;5011971;28;20900;-74
2021/10/31 06:08:12;;;;;;;29.87;16.37;;;;;;;;;;5010980;28;20174;-73
2021/10/31 06:10:37;;;;;;;28.93;17.00;;;;;;;;;;5011867;28;20608;-73
2021/10/31 06:13:02;;;;;;;37.23;17.33;;;;;;;;;;4995975;28;20205;-74
2021/10/31 06:15:28;;;;;;;35.57;17.77;;;;;;;;;;5013277;28;20273;-72
2021/10/31 06:17:53;;;;;;;41.07;17.10;;;;;;;;;;5015038;28;20182;-72
2021/10/31 06:20:18;;;;;;;31.37;17.20;;;;;;;;;;5011833;28;20611;-73
2021/10/31 06:22:43;;;;;;;30.70;17.53;;;;;;;;;;4991568;28;20893;-75
2021/10/31 06:25:09;;;;;;;31.07;18.07;;;;;;;;;;5011383;28;20190;-75
2021/10/31 06:27:34;;;;;;;37.47;17.50;;;;;;;;;;5011813;28;20829;-73
2021/10/31 06:30:00;;;;;;;35.23;18.33;;;;;;;;;;5010921;28;20179;-73
2021/10/31 06:32:26;;;;;;;38.87;20.07;;;;;;;;;;5010254;28;20218;-75
2021/10/31 06:34:51;;;;;;;34.00;18.03;;;;;;;;;;5010747;28;20190;-73
2021/10/31 06:37:17;;;;;;;35.10;18.90;;;;;;;;;;5010006;28;20201;-72
2021/10/31 06:39:42;;;;;;;34.00;19.00;;;;;;;;;;5008694;28;20186;-73
2021/10/31 06:42:07;;;;;;;30.43;19.20;;;;;;;;;;5011160;28;20325;-73
2021/10/31 06:44:32;;;;;;;37.67;20.00;;;;;;;;;;5010498;28;20756;-75
2021/10/31 06:46:58;;;;;;;39.50;20.53;;;;;;;;;;5009142;28;20218;-75
2021/10/31 06:49:23;;;;;;;37.87;20.70;;;;;;;;;;5007869;28;20174;-75
2021/10/31 06:51:48;;;;;;;36.53;19.60;;;;;;;;;;5010534;28;20632;-75
2021/10/31 06:54:15;;;;;;;33.70;18.63;;;;;;;;;;5007294;28;20559;-73
2021/10/31 06:56:40;;;;;;;38.80;20.60;;;;;;;;;;4989032;28;20186;-73
2021/10/31 06:59:05;;;;;;;41.03;21.47;;;;;;;;;;5008935;28;20680;-73
2021/10/31 07:01:31;;;;;;;35.43;19.67;;;;;;;;;;5007421;28;20210;-73
2021/10/31 07:03:56;;;;;;;34.20;19.73;;;;;;;;;;5008116;28;20206;-74
2021/10/31 07:06:21;;;;;;;39.03;20.13;;;;;;;;;;4987825;28;20212;-73
2021/10/31 07:08:46;;;;;;;35.80;19.80;;;;;;;;;;5006828;28;20239;-73
2021/10/31 07:11:11;;;;;;;34.37;19.93;;;;;;;;;;5006650;28;20438;-74
2021/10/31 07:13:37;;;;;;;32.13;19.37;;;;;;;;;;5007262;28;20248;-74
2021/10/31 07:16:02;;;;;;;30.53;18.37;;;;;;;;;;5008185;28;20178;-73
2021/10/31 07:18:28;;;;;;;32.03;19.20;;;;;;;;;;5012332;28;20223;-74
2021/10/31 07:20:53;;;;;;;37.60;18.10;;;;;;;;;;5021112;28;20170;-73
2021/10/31 07:23:18;;;;;;;36.63;18.20;;;;;;;;;;5025378;28;20240;-74
2021/10/31 07:25:43;;;;;;;35.80;18.70;;;;;;;;;;5028527;28;20209;-73
2021/10/31 07:28:09;;;;;;;33.43;18.93;;;;;;;;;;5012104;28;20273;-73
2021/10/31 07:30:34;;;;;;;36.63;17.60;;;;;;;;;;5024457;28;20186;-74
2021/10/31 07:33:00;;;;;;;24.60;16.00;;;;;;;;;;5027955;28;20210;-73
2021/10/31 07:35:26;;;;;;;27.20;16.93;;;;;;;;;;5029253;28;20245;-73
2021/10/31 07:37:51;;;;;;;30.20;15.60;;;;;;;;;;5032526;28;20194;-73
2021/10/31 07:40:17;;;;;;;31.77;16.87;;;;;;;;;;5032601;28;20190;-73
2021/10/31 07:42:42;;;;;;;23.43;16.17;;;;;;;;;;5040029;28;20256;-74
2021/10/31 07:45:08;;;;;;;26.57;16.30;;;;;;;;;;5022311;28;20174;-73
2021/10/31 07:47:33;;;;;;;23.67;15.43;;;;;;;;;;5039026;28;20182;-73
2021/10/31 07:49:58;;;;;;;25.70;15.20;;;;;;;;;;5021261;28;20194;-74
2021/10/31 07:52:25;;;;;;;25.40;14.03;;;;;;;;;;5040015;28;20550;-73
2021/10/31 07:54:50;;;;;;;25.07;14.07;;;;;;;;;;5039150;28;20235;-73
2021/10/31 07:57:21;;;;;;;24.87;15.03;;;;;;;;;;5033700;28;20190;-73
2021/10/31 07:59:46;;;;;;;22.13;14.80;;;;;;;;;;5016999;28;20186;-73
2021/10/31 08:02:12;;;;;;;24.37;15.53;;;;;;;;;;5015663;28;20202;-73
2021/10/31 08:04:37;;;;;;;19.67;13.67;;;;;;;;;;5033959;28;20297;-74
2021/10/31 08:07:03;;;;;;;22.70;14.20;;;;;;;;;;5033433;28;20170;-73
2021/10/31 08:09:28;;;;;;;19.47;13.13;;;;;;;;;;5032689;28;20254;-74
2021/10/31 08:11:53;;;;;;;18.40;12.87;;;;;;;;;;5031472;28;20194;-74
2021/10/31 08:14:18;;;;;;;20.00;12.70;;;;;;;;;;5031940;28;20178;-73
2021/10/31 08:16:44;;;;;;;21.60;14.20;;;;;;;;;;5033338;28;20186;-73
2021/10/31 08:19:09;;;;;;;17.67;13.53;;;;;;;;;;5023931;28;20197;-73
2021/10/31 08:21:35;;;;;;;19.13;12.00;;;;;;;;;;5040784;22;20287;-71
2021/10/31 08:24:00;;;;;;;21.07;13.97;;;;;;;;;;5044700;28;20762;-70
2021/10/31 08:26:26;;;;;;;16.43;12.50;;;;;;;;;;5029266;28;20186;-71
2021/10/31 08:28:52;;;;;;;19.80;12.47;;;;;;;;;;5012629;28;20189;-70
2021/10/31 08:31:23;;;;;;;16.33;11.77;;;;;;;;;;5044324;28;20174;-70
2021/10/31 08:33:54;;;;;;;17.43;12.57;;;;;;;;;;5030343;28;20243;-71
2021/10/31 08:36:19;;;;;;;12.97;10.50;;;;;;;;;;5015447;28;20186;-70
2021/10/31 08:38:45;;;;;;;15.43;12.80;;;;;;;;;;5012631;28;20260;-72
2021/10/31 08:41:10;;;;;;;12.43;9.27;;;;;;;;;;5016901;28;20194;-71
2021/10/31 08:43:35;;;;;;;12.33;9.67;;;;;;;;;;5018117;28;20976;-71
2021/10/31 08:46:02;;;;;;;12.83;9.93;;;;;;;;;;5018878;28;20177;-71
2021/10/31 08:48:28;;;;;;;12.00;9.20;;;;;;;;;;5019115;28;20173;-71
2021/10/31 08:50:53;;;;;;;11.97;9.03;;;;;;;;;;5002822;28;20764;-71
2021/10/31 08:53:19;;;;;;;10.27;8.33;;;;;;;;;;5032505;28;20202;-69
2021/10/31 08:55:45;;;;;;;9.18;8.18;;;;;;;;;;5006433;28;20189;-71
2021/10/31 08:58:10;;;;;;;9.87;8.67;;;;;;;;;;5019010;28;20222;-71
2021/10/31 09:00:39;;;;;;;12.10;8.17;;;;;;;;;;5019465;28;20179;-71
2021/10/31 09:03:05;;;;;;;9.00;8.10;;;;;;;;;;5015849;28;20229;-70
2021/10/31 09:05:31;;;;;;;9.87;7.27;;;;;;;;;;5018528;28;20652;-71
2021/10/31 09:07:56;;;;;;;8.20;6.70;;;;;;;;;;5018678;28;20200;-70
2021/10/31 09:10:21;;;;;;;8.73;7.17;;;;;;;;;;5029664;28;20217;-71
2021/10/31 09:12:46;;;;;;;7.78;6.93;;;;;;;;;;5032302;28;20216;-69
2021/10/31 09:15:12;;;;;;;6.95;6.25;;;;;;;;;;5028488;28;20186;-71
2021/10/31 09:17:37;;;;;;;7.90;6.43;;;;;;;;;;5028979;28;20703;-71
2021/10/31 09:20:03;;;;;;;8.43;7.55;;;;;;;;;;5032287;28;20174;-71
2021/10/31 09:22:29;;;;;;;8.85;7.78;;;;;;;;;;5030796;28;20218;-71
2021/10/31 09:24:54;;;;;;;7.55;6.63;;;;;;;;;;5030819;28;20245;-71
2021/10/31 09:27:20;;;;;;;6.50;5.90;;;;;;;;;;5029757;28;20596;-71
2021/10/31 09:29:45;;;;;;;7.53;6.00;;;;;;;;;;5029768;28;20181;-71
2021/10/31 09:32:11;;;;;;;7.78;5.90;;;;;;;;;;5028777;28;20201;-71
2021/10/31 09:34:36;;;;;;;7.55;6.38;;;;;;;;;;5033076;28;20671;-71
2021/10/31 09:37:02;;;;;;;6.70;6.07;;;;;;;;;;5031202;28;20182;-71
2021/10/31 09:39:28;;;;;;;6.30;5.70;;;;;;;;;;5030673;28;20179;-71
2021/10/31 09:41:53;;;;;;;8.05;6.22;;;;;;;;;;5031326;28;20778;-71
2021/10/31 09:44:26;;;;;;;9.68;5.20;;;;;;;;;;5025692;28;20198;-70
2021/10/31 09:46:52;;;;;;;7.32;5.60;;;;;;;;;;5028333;28;20173;-71
2021/10/31 09:49:17;;;;;;;5.82;4.80;;;;;;;;;;5026400;28;20563;-71
2021/10/31 09:51:44;;;;;;;5.72;5.03;;;;;;;;;;5026572;28;20588;-71
2021/10/31 09:54:11;;;;;;;5.68;5.07;;;;;;;;;;5025652;28;20178;-71
2021/10/31 09:56:37;;;;;;;5.47;4.88;;;;;;;;;;5024192;28;20221;-71
2021/10/31 09:59:02;;;;;;;6.32;5.72;;;;;;;;;;5024902;28;20199;-71
2021/10/31 10:04:24;;;;;;;5.07;4.40;;;;;;;;;;5025261;28;20258;-71
2021/10/31 10:06:50;;;;;;;4.80;4.22;;;;;;;;;;5025696;28;20179;-75
2021/10/31 10:09:15;;;;;;;5.90;4.18;;;;;;;;;;5030027;28;20178;-70
2021/10/31 10:11:42;;;;;;;4.30;3.90;;;;;;;;;;5035510;28;20193;-70
2021/10/31 10:14:19;;;;;;;4.93;3.88;;;;;;;;;;5026620;28;20178;-70
2021/10/31 10:16:45;;;;;;;7.03;4.18;;;;;;;;;;5006832;28;20563;-71
2021/10/31 10:19:15;;;;;;;6.00;3.90;;;;;;;;;;5026486;28;20197;-71
2021/10/31 10:21:40;;;;;;;4.32;3.80;;;;;;;;;;5027157;28;20220;-71
2021/10/31 10:24:09;;;;;;;4.60;3.60;;;;;;;;;;5027894;28;20203;-70
2021/10/31 10:26:45;;;;;;;4.80;3.92;;;;;;;;;;5024917;28;20506;-70
2021/10/31 10:29:16;;;;;;;3.83;2.83;;;;;;;;;;5028059;28;20178;-70
2021/10/31 10:32:00;;;;;;;4.72;3.53;;;;;;;;;;5039570;28;20202;-70
2021/10/31 10:34:42;;;;;;;4.30;3.15;;;;;;;;;;5033846;28;20699;-70
2021/10/31 10:37:15;;;;;;;5.53;2.95;;;;;;;;;;5026925;28;20665;-71
2021/10/31 10:39:42;;;;;;;5.28;2.95;;;;;;;;;;5026831;28;20635;-70
2021/10/31 10:42:08;;;;;;;5.05;2.58;;;;;;;;;;5029011;28;20200;-70
2021/10/31 10:44:37;;;;;;;3.50;2.67;;;;;;;;;;5011200;28;20178;-70
2021/10/31 10:47:02;;;;;;;4.07;2.33;;;;;;;;;;5008965;28;20224;-71
2021/10/31 10:49:28;;;;;;;3.05;2.75;;;;;;;;;;5026560;28;20174;-70
2021/10/31 10:52:06;;;;;;;4.53;2.92;;;;;;;;;;5027616;28;20189;-71
2021/10/31 10:54:32;;;;;;;3.22;2.28;;;;;;;;;;5027206;28;20186;-70
2021/10/31 10:56:58;;;;;;;3.92;2.58;;;;;;;;;;5025811;28;20727;-70
2021/10/31 10:59:23;;;;;;;3.70;2.70;;;;;;;;;;5023908;28;20278;-70
2021/10/31 11:02:05;;;;;;;4.57;2.60;;;;;;;;;;5024330;28;20201;-70
2021/10/31 11:04:31;;;;;;;2.50;2.20;;;;;;;;;;5024345;28;20229;-69
2021/10/31 11:06:56;;;;;;;3.17;2.22;;;;;;;;;;5025285;28;20186;-70
2021/10/31 11:09:21;;;;;;;2.42;2.17;;;;;;;;;;5026362;28;20182;-69
2021/10/31 11:11:46;;;;;;;2.00;1.90;;;;;;;;;;5025645;28;20189;-68
2021/10/31 11:14:12;;;;;;;3.25;2.20;;;;;;;;;;5008338;28;20727;-69
2021/10/31 11:16:37;;;;;;;3.28;1.75;;;;;;;;;;5027072;28;20193;-69
2021/10/31 11:19:02;;;;;;;3.20;2.10;;;;;;;;;;5025216;28;20182;-70
2021/10/31 11:21:27;;;;;;;4.82;2.05;;;;;;;;;;5024752;28;20448;-69
2021/10/31 11:23:55;;;;;;;5.18;2.15;;;;;;;;;;5026136;28;20247;-70
2021/10/31 11:26:21;;;;;;;4.05;1.77;;;;;;;;;;5027323;28;20192;-69
2021/10/31 11:28:46;;;;;;;2.83;1.80;;;;;;;;;;5025823;28;20175;-69
2021/10/31 11:31:11;;;;;;;2.97;2.17;;;;;;;;;;5021850;28;20237;-68
2021/10/31 11:33:36;;;;;;;4.63;2.00;;;;;;;;;;5028736;28;20194;-69
2021/10/31 11:36:02;;;;;;;2.80;1.65;;;;;;;;;;5026638;28;20204;-69
2021/10/31 11:38:30;;;;;;;2.60;1.58;;;;;;;;;;5024773;28;20186;-69
2021/10/31 11:40:55;;;;;;;1.77;1.52;;;;;;;;;;5021538;28;20639;-68
2021/10/31 11:43:21;;;;;;;1.65;1.52;;;;;;;;;;5019602;28;20216;-69
2021/10/31 11:45:48;;;;;;;2.20;1.77;;;;;;;;;;5026647;28;20739;-68
2021/10/31 11:48:17;;;;;;;1.80;1.50;;;;;;;;;;5024954;28;20189;-69
2021/10/31 11:51:02;;;;;;;3.65;1.80;;;;;;;;;;5023327;28;20181;-69
2021/10/31 11:53:27;;;;;;;2.45;1.50;;;;;;;;;;5006246;28;20293;-70
2021/10/31 11:55:59;;;;;;;2.13;1.70;;;;;;;;;;5025623;28;20659;-69
2021/10/31 11:58:43;;;;;;;2.75;1.48;;;;;;;;;;5020723;28;20435;-68
2021/10/31 12:01:15;;;;;;;1.85;1.60;;;;;;;;;;5007153;28;20185;-69
2021/10/31 12:03:46;;;;;;;2.35;1.48;;;;;;;;;;5019469;28;20694;-68
2021/10/31 12:06:14;;;;;;;2.10;1.70;;;;;;;;;;5022249;28;20243;-68
2021/10/31 12:08:46;;;;;;;2.05;1.48;;;;;;;;;;5027753;28;20178;-69
2021/10/31 12:11:12;;;;;;;3.67;1.30;;;;;;;;;;5026766;28;20209;-70
2021/10/31 12:13:41;;;;;;;1.35;1.10;;;;;;;;;;5022577;28;20181;-68
2021/10/31 12:16:11;;;;;;;3.65;1.50;;;;;;;;;;5025833;28;20637;-69
2021/10/31 12:18:50;;;;;;;1.77;1.50;;;;;;;;;;5004219;28;20186;-68
2021/10/31 12:21:23;;;;;;;1.85;1.50;;;;;;;;;;5022628;28;20186;-69
2021/10/31 12:23:57;;;;;;;3.13;2.00;;;;;;;;;;5023487;28;20204;-69
2021/10/31 12:26:23;;;;;;;3.85;1.60;;;;;;;;;;5021941;28;20182;-69
2021/10/31 12:28:48;;;;;;;3.85;1.73;;;;;;;;;;5024058;28;20175;-70
2021/10/31 12:31:43;;;;;;;6.90;1.40;;;;;;;;;;5022690;28;20227;-70
2021/10/31 12:34:13;;;;;;;1.98;1.27;;;;;;;;;;5001113;28;20190;-68
2021/10/31 12:36:39;;;;;;;2.17;1.20;;;;;;;;;;5022031;28;20196;-69
2021/10/31 12:39:23;;;;;;;2.25;1.40;;;;;;;;;;5023459;28;20689;-68
2021/10/31 12:42:08;;;;;;;3.00;1.63;;;;;;;;;;5027920;28;20567;-69
2021/10/31 12:44:34;;;;;;;4.70;1.20;;;;;;;;;;5027080;28;20667;-69
2021/10/31 12:47:03;;;;;;;1.83;1.27;;;;;;;;;;5029592;28;20251;-69
2021/10/31 12:49:29;;;;;;;1.98;1.10;;;;;;;;;;5029721;28;20260;-68
2021/10/31 12:52:04;;;;;;;5.95;1.30;;;;;;;;;;5034953;28;20202;-69
2021/10/31 12:54:36;;;;;;;2.72;0.90;;;;;;;;;;5029294;28;20186;-69
2021/10/31 12:57:11;;;;;;;1.58;1.40;;;;;;;;;;5027096;28;20179;-69
2021/10/31 12:59:44;;;;;;;2.63;1.20;;;;;;;;;;5029962;28;20226;-68
2021/10/31 13:02:10;;;;;;;1.95;1.10;;;;;;;;;;5007029;28;20682;-69
2021/10/31 13:04:49;;;;;;;3.90;1.70;;;;;;;;;;5011385;28;20225;-69
2021/10/31 13:07:14;;;;;;;1.80;1.15;;;;;;;;;;5030295;28;20253;-68
2021/10/31 13:09:39;;;;;;;2.80;1.48;;;;;;;;;;5028174;28;20585;-69
2021/10/31 13:12:04;;;;;;;1.35;1.25;;;;;;;;;;5023886;28;21532;-69
2021/10/31 13:14:31;;;;;;;2.13;1.00;;;;;;;;;;5025405;28;20210;-68
2021/10/31 13:17:00;;;;;;;3.63;1.40;;;;;;;;;;5028298;28;20205;-68
2021/10/31 13:19:29;;;;;;;1.67;1.20;;;;;;;;;;5024323;28;20279;-69
2021/10/31 13:21:59;;;;;;;3.22;1.55;;;;;;;;;;5028469;28;20205;-69
2021/10/31 13:24:25;;;;;;;2.55;1.23;;;;;;;;;;5027070;28;20758;-69
2021/10/31 13:26:50;;;;;;;2.28;1.30;;;;;;;;;;5029525;28;20179;-69
2021/10/31 13:29:15;;;;;;;3.33;1.30;;;;;;;;;;5021014;28;20631;-69
2021/10/31 13:31:40;;;;;;;2.40;1.30;;;;;;;;;;5026163;28;20205;-70
2021/10/31 13:34:10;;;;;;;2.00;1.30;;;;;;;;;;5024141;28;20728;-69
2021/10/31 13:36:36;;;;;;;2.53;1.60;;;;;;;;;;5014679;28;20431;-68
2021/10/31 13:39:02;;;;;;;2.58;1.30;;;;;;;;;;5022971;28;20182;-68
2021/10/31 13:41:33;;;;;;;2.53;1.50;;;;;;;;;;5019497;28;20208;-69
2021/10/31 13:43:59;;;;;;;1.83;1.38;;;;;;;;;;5015292;28;20197;-69
2021/10/31 13:46:30;;;;;;;2.90;1.60;;;;;;;;;;5007805;28;20190;-69
2021/10/31 13:48:59;;;;;;;2.38;1.48;;;;;;;;;;5021864;28;20249;-69
2021/10/31 13:51:25;;;;;;;6.25;1.65;;;;;;;;;;5005286;28;20213;-67
2021/10/31 13:53:50;;;;;;;3.95;1.48;;;;;;;;;;5021079;28;20183;-68
2021/10/31 13:56:16;;;;;;;3.10;1.52;;;;;;;;;;5026787;28;20194;-69
2021/10/31 13:58:42;;;;;;;2.30;1.80;;;;;;;;;;5027257;28;20307;-69
2021/10/31 14:01:07;;;;;;;3.00;1.48;;;;;;;;;;5031961;28;20545;-69
2021/10/31 14:03:38;;;;;;;2.15;1.90;;;;;;;;;;5025628;28;20198;-69
2021/10/31 14:06:07;;;;;;;1.75;1.52;;;;;;;;;;5021267;28;20976;-68
2021/10/31 14:08:42;;;;;;;4.03;1.90;;;;;;;;;;5021590;28;20193;-69
2021/10/31 14:11:15;;;;;;;3.13;1.80;;;;;;;;;;5026253;28;20228;-68
2021/10/31 14:13:40;;;;;;;2.72;1.58;;;;;;;;;;5024821;28;20261;-69
2021/10/31 14:16:16;;;;;;;3.83;2.20;;;;;;;;;;5021371;28;20186;-67
2021/10/31 14:18:41;;;;;;;1.40;1.30;;;;;;;;;;5003620;28;20189;-69
2021/10/31 14:21:06;;;;;;;2.22;1.90;;;;;;;;;;5025292;28;20169;-68
2021/10/31 14:23:32;;;;;;;4.00;1.92;;;;;;;;;;5018338;28;20288;-69
2021/10/31 14:26:02;;;;;;;1.92;1.63;;;;;;;;;;5022813;28;20178;-69
2021/10/31 14:28:28;;;;;;;2.58;2.03;;;;;;;;;;5025343;28;20264;-69
2021/10/31 14:30:54;;;;;;;2.47;1.70;;;;;;;;;;5019620;28;20222;-68